sensor_id;sensor_type;location;lat;lon;timestamp;P1;durP1;ratioP1;P2;durP2;ratioP2
17763;SDS011;22245;52.832;13.816;2023-07-13T00:01:52;4.85;;;3.38;;
17763;SDS011;22245;52.832;13.816;2023-07-13T00:05:16;4.75;;;3.00;;
17763;SDS011;22245;52.832;13.816;2023-07-13T00:08:37;5.82;;;3.13;;
17763;SDS011;22245;52.832;13.816;2023-07-13T00:11:59;3.92;;;2.95;;
17763;SDS011;22245;52.832;13.816;2023-07-13T00:15:23;5.43;;;3.25;;
17763;SDS011;22245;52.832;13.816;2023-07-13T00:18:46;4.10;;;2.95;;
17763;SDS011;22245;52.832;13.816;2023-07-13T00:22:09;6.90;;;3.53;;
17763;SDS011;22245;52.832;13.816;2023-07-13T00:25:31;6.13;;;3.50;;
17763;SDS011;22245;52.832;13.816;2023-07-13T00:28:52;4.88;;;3.33;;
17763;SDS011;22245;52.832;13.816;2023-07-13T00:32:14;5.10;;;3.03;;
17763;SDS011;22245;52.832;13.816;2023-07-13T00:35:36;5.18;;;3.15;;
17763;SDS011;22245;52.832;13.816;2023-07-13T00:39:01;5.68;;;3.30;;
17763;SDS011;22245;52.832;13.816;2023-07-13T00:42:24;6.57;;;3.30;;
17763;SDS011;22245;52.832;13.816;2023-07-13T00:49:37;6.65;;;3.38;;
17763;SDS011;22245;52.832;13.816;2023-07-13T00:52:59;4.85;;;3.22;;
17763;SDS011;22245;52.832;13.816;2023-07-13T00:56:23;4.72;;;3.08;;
17763;SDS011;22245;52.832;13.816;2023-07-13T00:59:46;5.93;;;3.40;;
17763;SDS011;22245;52.832;13.816;2023-07-13T01:03:11;4.13;;;3.20;;
17763;SDS011;22245;52.832;13.816;2023-07-13T01:06:32;4.20;;;3.30;;
17763;SDS011;22245;52.832;13.816;2023-07-13T01:09:55;4.10;;;3.10;;
17763;SDS011;22245;52.832;13.816;2023-07-13T01:13:18;8.32;;;3.42;;
17763;SDS011;22245;52.832;13.816;2023-07-13T01:16:41;4.68;;;3.03;;
17763;SDS011;22245;52.832;13.816;2023-07-13T01:20:05;6.45;;;3.20;;
17763;SDS011;22245;52.832;13.816;2023-07-13T01:23:31;5.97;;;3.05;;
17763;SDS011;22245;52.832;13.816;2023-07-13T01:26:53;5.00;;;2.95;;
17763;SDS011;22245;52.832;13.816;2023-07-13T01:30:15;3.95;;;2.97;;
17763;SDS011;22245;52.832;13.816;2023-07-13T01:33:37;5.28;;;3.25;;
17763;SDS011;22245;52.832;13.816;2023-07-13T01:37:00;5.93;;;3.13;;
17763;SDS011;22245;52.832;13.816;2023-07-13T01:40:23;3.65;;;2.75;;
17763;SDS011;22245;52.832;13.816;2023-07-13T01:43:45;5.53;;;2.80;;
17763;SDS011;22245;52.832;13.816;2023-07-13T01:47:07;3.38;;;2.80;;
17763;SDS011;22245;52.832;13.816;2023-07-13T01:50:29;4.63;;;3.20;;
17763;SDS011;22245;52.832;13.816;2023-07-13T01:53:51;9.98;;;3.30;;
17763;SDS011;22245;52.832;13.816;2023-07-13T01:57:13;5.55;;;3.53;;
17763;SDS011;22245;52.832;13.816;2023-07-13T02:00:35;3.92;;;3.00;;
17763;SDS011;22245;52.832;13.816;2023-07-13T02:03:57;4.53;;;3.30;;
17763;SDS011;22245;52.832;13.816;2023-07-13T02:07:19;5.10;;;3.63;;
17763;SDS011;22245;52.832;13.816;2023-07-13T02:10:41;4.20;;;3.35;;
17763;SDS011;22245;52.832;13.816;2023-07-13T02:14:04;5.43;;;3.58;;
17763;SDS011;22245;52.832;13.816;2023-07-13T02:17:26;4.93;;;3.38;;
17763;SDS011;22245;52.832;13.816;2023-07-13T02:20:48;6.22;;;3.33;;
17763;SDS011;22245;52.832;13.816;2023-07-13T02:24:10;7.32;;;3.92;;
17763;SDS011;22245;52.832;13.816;2023-07-13T02:27:37;4.53;;;3.35;;
17763;SDS011;22245;52.832;13.816;2023-07-13T02:31:05;6.90;;;3.72;;
17763;SDS011;22245;52.832;13.816;2023-07-13T02:34:27;4.95;;;3.63;;
17763;SDS011;22245;52.832;13.816;2023-07-13T02:37:52;6.63;;;3.65;;
17763;SDS011;22245;52.832;13.816;2023-07-13T02:41:14;5.80;;;3.80;;
17763;SDS011;22245;52.832;13.816;2023-07-13T02:44:36;6.97;;;3.72;;
17763;SDS011;22245;52.832;13.816;2023-07-13T02:47:58;4.45;;;3.60;;
17763;SDS011;22245;52.832;13.816;2023-07-13T02:51:20;3.83;;;3.30;;
17763;SDS011;22245;52.832;13.816;2023-07-13T02:54:42;4.88;;;3.65;;
17763;SDS011;22245;52.832;13.816;2023-07-13T02:58:03;6.28;;;3.63;;
17763;SDS011;22245;52.832;13.816;2023-07-13T03:01:26;6.65;;;3.70;;
17763;SDS011;22245;52.832;13.816;2023-07-13T03:04:49;6.80;;;4.13;;
17763;SDS011;22245;52.832;13.816;2023-07-13T03:08:11;5.88;;;3.80;;
17763;SDS011;22245;52.832;13.816;2023-07-13T03:11:35;10.15;;;4.28;;
17763;SDS011;22245;52.832;13.816;2023-07-13T03:15:19;8.07;;;4.30;;
17763;SDS011;22245;52.832;13.816;2023-07-13T03:18:42;4.25;;;3.78;;
17763;SDS011;22245;52.832;13.816;2023-07-13T03:22:06;6.15;;;4.50;;
17763;SDS011;22245;52.832;13.816;2023-07-13T03:25:29;7.28;;;4.07;;
17763;SDS011;22245;52.832;13.816;2023-07-13T03:28:53;5.03;;;3.88;;
17763;SDS011;22245;52.832;13.816;2023-07-13T03:32:16;5.28;;;4.10;;
17763;SDS011;22245;52.832;13.816;2023-07-13T03:35:40;6.80;;;4.28;;
17763;SDS011;22245;52.832;13.816;2023-07-13T03:39:04;8.82;;;4.30;;
17763;SDS011;22245;52.832;13.816;2023-07-13T03:42:36;9.77;;;4.20;;
17763;SDS011;22245;52.832;13.816;2023-07-13T03:45:58;5.35;;;4.50;;
17763;SDS011;22245;52.832;13.816;2023-07-13T03:49:19;6.18;;;4.43;;
17763;SDS011;22245;52.832;13.816;2023-07-13T03:52:41;5.55;;;4.53;;
17763;SDS011;22245;52.832;13.816;2023-07-13T03:56:05;6.68;;;4.80;;
17763;SDS011;22245;52.832;13.816;2023-07-13T03:59:27;7.30;;;5.20;;
17763;SDS011;22245;52.832;13.816;2023-07-13T04:02:49;6.10;;;4.82;;
17763;SDS011;22245;52.832;13.816;2023-07-13T04:06:13;6.75;;;5.10;;
17763;SDS011;22245;52.832;13.816;2023-07-13T04:09:41;5.57;;;4.57;;
17763;SDS011;22245;52.832;13.816;2023-07-13T04:13:04;6.22;;;4.90;;
17763;SDS011;22245;52.832;13.816;2023-07-13T04:16:27;7.07;;;5.28;;
17763;SDS011;22245;52.832;13.816;2023-07-13T04:19:49;5.82;;;4.78;;
17763;SDS011;22245;52.832;13.816;2023-07-13T04:23:11;6.90;;;5.13;;
17763;SDS011;22245;52.832;13.816;2023-07-13T04:26:33;9.77;;;5.30;;
17763;SDS011;22245;52.832;13.816;2023-07-13T04:29:57;7.88;;;5.20;;
17763;SDS011;22245;52.832;13.816;2023-07-13T04:33:19;6.93;;;5.38;;
17763;SDS011;22245;52.832;13.816;2023-07-13T04:36:42;6.75;;;4.80;;
17763;SDS011;22245;52.832;13.816;2023-07-13T04:40:05;6.93;;;5.00;;
17763;SDS011;22245;52.832;13.816;2023-07-13T04:43:32;9.65;;;4.93;;
17763;SDS011;22245;52.832;13.816;2023-07-13T04:46:56;13.73;;;5.55;;
17763;SDS011;22245;52.832;13.816;2023-07-13T04:50:18;6.80;;;5.15;;
17763;SDS011;22245;52.832;13.816;2023-07-13T04:53:43;9.60;;;5.07;;
17763;SDS011;22245;52.832;13.816;2023-07-13T04:57:05;7.53;;;4.55;;
17763;SDS011;22245;52.832;13.816;2023-07-13T05:00:27;8.25;;;4.82;;
17763;SDS011;22245;52.832;13.816;2023-07-13T05:03:50;5.53;;;4.78;;
17763;SDS011;22245;52.832;13.816;2023-07-13T05:07:11;7.78;;;4.93;;
17763;SDS011;22245;52.832;13.816;2023-07-13T05:10:34;6.80;;;5.15;;
17763;SDS011;22245;52.832;13.816;2023-07-13T05:13:57;6.32;;;4.50;;
17763;SDS011;22245;52.832;13.816;2023-07-13T05:17:19;4.95;;;4.13;;
17763;SDS011;22245;52.832;13.816;2023-07-13T05:20:42;7.78;;;4.72;;
17763;SDS011;22245;52.832;13.816;2023-07-13T05:24:04;6.35;;;4.60;;
17763;SDS011;22245;52.832;13.816;2023-07-13T05:27:44;5.55;;;4.07;;
17763;SDS011;22245;52.832;13.816;2023-07-13T05:31:07;6.25;;;4.00;;
17763;SDS011;22245;52.832;13.816;2023-07-13T05:34:30;7.97;;;4.13;;
17763;SDS011;22245;52.832;13.816;2023-07-13T05:37:54;7.07;;;4.30;;
17763;SDS011;22245;52.832;13.816;2023-07-13T05:41:16;6.63;;;3.67;;
17763;SDS011;22245;52.832;13.816;2023-07-13T05:44:37;5.57;;;3.63;;
17763;SDS011;22245;52.832;13.816;2023-07-13T05:47:59;4.20;;;3.40;;
17763;SDS011;22245;52.832;13.816;2023-07-13T05:51:21;3.72;;;3.13;;
17763;SDS011;22245;52.832;13.816;2023-07-13T05:54:44;4.82;;;3.08;;
17763;SDS011;22245;52.832;13.816;2023-07-13T05:58:06;5.88;;;3.03;;
17763;SDS011;22245;52.832;13.816;2023-07-13T06:01:29;3.70;;;2.58;;
17763;SDS011;22245;52.832;13.816;2023-07-13T06:04:52;3.17;;;2.20;;
17763;SDS011;22245;52.832;13.816;2023-07-13T06:08:13;4.88;;;2.33;;
17763;SDS011;22245;52.832;13.816;2023-07-13T06:11:37;10.20;;;2.60;;
17763;SDS011;22245;52.832;13.816;2023-07-13T06:14:58;4.15;;;2.88;;
17763;SDS011;22245;52.832;13.816;2023-07-13T06:18:19;3.95;;;2.38;;
17763;SDS011;22245;52.832;13.816;2023-07-13T06:21:41;4.20;;;2.13;;
17763;SDS011;22245;52.832;13.816;2023-07-13T06:25:03;5.43;;;2.47;;
17763;SDS011;22245;52.832;13.816;2023-07-13T06:28:27;5.45;;;2.42;;
17763;SDS011;22245;52.832;13.816;2023-07-13T06:31:50;3.97;;;2.20;;
17763;SDS011;22245;52.832;13.816;2023-07-13T06:35:11;3.42;;;2.20;;
17763;SDS011;22245;52.832;13.816;2023-07-13T06:38:34;3.50;;;2.30;;
17763;SDS011;22245;52.832;13.816;2023-07-13T06:41:56;4.38;;;2.28;;
17763;SDS011;22245;52.832;13.816;2023-07-13T06:45:19;5.78;;;2.33;;
17763;SDS011;22245;52.832;13.816;2023-07-13T06:48:41;4.63;;;2.50;;
17763;SDS011;22245;52.832;13.816;2023-07-13T06:52:03;4.00;;;2.20;;
17763;SDS011;22245;52.832;13.816;2023-07-13T06:55:26;5.15;;;2.80;;
17763;SDS011;22245;52.832;13.816;2023-07-13T06:58:47;3.13;;;2.20;;
17763;SDS011;22245;52.832;13.816;2023-07-13T07:02:11;7.10;;;2.50;;
17763;SDS011;22245;52.832;13.816;2023-07-13T07:05:32;3.70;;;2.38;;
17763;SDS011;22245;52.832;13.816;2023-07-13T07:08:54;4.65;;;2.75;;
17763;SDS011;22245;52.832;13.816;2023-07-13T07:12:16;3.83;;;2.50;;
17763;SDS011;22245;52.832;13.816;2023-07-13T07:15:38;4.78;;;2.45;;
17763;SDS011;22245;52.832;13.816;2023-07-13T07:19:04;4.60;;;2.15;;
17763;SDS011;22245;52.832;13.816;2023-07-13T07:22:26;5.03;;;2.40;;
17763;SDS011;22245;52.832;13.816;2023-07-13T07:25:48;3.53;;;2.58;;
17763;SDS011;22245;52.832;13.816;2023-07-13T07:29:10;5.18;;;1.90;;
17763;SDS011;22245;52.832;13.816;2023-07-13T07:32:34;3.15;;;2.15;;
17763;SDS011;22245;52.832;13.816;2023-07-13T07:36:00;4.93;;;2.20;;
17763;SDS011;22245;52.832;13.816;2023-07-13T07:39:26;3.88;;;1.88;;
17763;SDS011;22245;52.832;13.816;2023-07-13T07:42:49;3.13;;;2.05;;
17763;SDS011;22245;52.832;13.816;2023-07-13T07:46:10;5.07;;;2.30;;
17763;SDS011;22245;52.832;13.816;2023-07-13T07:49:33;3.20;;;1.75;;
17763;SDS011;22245;52.832;13.816;2023-07-13T07:52:57;2.42;;;1.70;;
17763;SDS011;22245;52.832;13.816;2023-07-13T07:56:18;4.75;;;2.13;;
17763;SDS011;22245;52.832;13.816;2023-07-13T07:59:42;2.25;;;1.60;;
17763;SDS011;22245;52.832;13.816;2023-07-13T08:03:07;3.95;;;1.77;;
17763;SDS011;22245;52.832;13.816;2023-07-13T08:06:31;3.78;;;1.98;;
17763;SDS011;22245;52.832;13.816;2023-07-13T08:09:58;2.78;;;1.80;;
17763;SDS011;22245;52.832;13.816;2023-07-13T08:13:19;2.60;;;1.73;;
17763;SDS011;22245;52.832;13.816;2023-07-13T08:16:41;4.43;;;1.52;;
17763;SDS011;22245;52.832;13.816;2023-07-13T08:20:03;2.55;;;1.63;;
17763;SDS011;22245;52.832;13.816;2023-07-13T08:23:26;1.90;;;1.35;;
17763;SDS011;22245;52.832;13.816;2023-07-13T08:26:51;3.30;;;1.70;;
17763;SDS011;22245;52.832;13.816;2023-07-13T08:30:13;5.32;;;1.65;;
17763;SDS011;22245;52.832;13.816;2023-07-13T08:33:35;2.63;;;1.73;;
17763;SDS011;22245;52.832;13.816;2023-07-13T08:36:58;4.25;;;1.83;;
17763;SDS011;22245;52.832;13.816;2023-07-13T08:40:22;4.22;;;1.73;;
17763;SDS011;22245;52.832;13.816;2023-07-13T08:43:49;2.47;;;1.38;;
17763;SDS011;22245;52.832;13.816;2023-07-13T08:47:14;2.17;;;1.27;;
17763;SDS011;22245;52.832;13.816;2023-07-13T08:50:40;3.33;;;1.60;;
17763;SDS011;22245;52.832;13.816;2023-07-13T08:54:22;2.28;;;1.48;;
17763;SDS011;22245;52.832;13.816;2023-07-13T08:57:53;1.83;;;1.45;;
17763;SDS011;22245;52.832;13.816;2023-07-13T09:01:24;1.65;;;1.27;;
17763;SDS011;22245;52.832;13.816;2023-07-13T09:04:53;3.85;;;1.65;;
17763;SDS011;22245;52.832;13.816;2023-07-13T09:08:24;2.72;;;1.63;;
17763;SDS011;22245;52.832;13.816;2023-07-13T09:11:56;3.83;;;1.70;;
17763;SDS011;22245;52.832;13.816;2023-07-13T09:15:30;1.65;;;1.38;;
17763;SDS011;22245;52.832;13.816;2023-07-13T09:18:56;4.55;;;1.70;;
17763;SDS011;22245;52.832;13.816;2023-07-13T09:22:23;4.03;;;1.70;;
17763;SDS011;22245;52.832;13.816;2023-07-13T09:25:49;1.45;;;1.33;;
17763;SDS011;22245;52.832;13.816;2023-07-13T09:29:18;2.35;;;1.55;;
17763;SDS011;22245;52.832;13.816;2023-07-13T09:32:49;4.82;;;1.45;;
17763;SDS011;22245;52.832;13.816;2023-07-13T09:36:19;2.33;;;1.77;;
17763;SDS011;22245;52.832;13.816;2023-07-13T09:39:43;3.38;;;1.52;;
17763;SDS011;22245;52.832;13.816;2023-07-13T09:43:07;2.35;;;1.48;;
17763;SDS011;22245;52.832;13.816;2023-07-13T09:46:34;3.03;;;1.30;;
17763;SDS011;22245;52.832;13.816;2023-07-13T09:49:56;2.78;;;1.58;;
17763;SDS011;22245;52.832;13.816;2023-07-13T09:53:24;2.45;;;1.42;;
17763;SDS011;22245;52.832;13.816;2023-07-13T09:56:55;2.20;;;1.40;;
17763;SDS011;22245;52.832;13.816;2023-07-13T10:00:20;2.78;;;1.63;;
17763;SDS011;22245;52.832;13.816;2023-07-13T10:03:51;3.13;;;1.33;;
17763;SDS011;22245;52.832;13.816;2023-07-13T10:07:13;3.55;;;1.55;;
17763;SDS011;22245;52.832;13.816;2023-07-13T10:10:53;4.10;;;1.75;;
17763;SDS011;22245;52.832;13.816;2023-07-13T10:14:20;5.47;;;1.83;;
17763;SDS011;22245;52.832;13.816;2023-07-13T10:17:45;1.90;;;1.33;;
17763;SDS011;22245;52.832;13.816;2023-07-13T10:21:11;3.50;;;1.65;;
17763;SDS011;22245;52.832;13.816;2023-07-13T10:24:38;3.70;;;1.80;;
17763;SDS011;22245;52.832;13.816;2023-07-13T10:28:04;2.75;;;1.70;;
17763;SDS011;22245;52.832;13.816;2023-07-13T10:31:32;2.15;;;1.63;;
17763;SDS011;22245;52.832;13.816;2023-07-13T10:34:57;6.18;;;1.73;;
17763;SDS011;22245;52.832;13.816;2023-07-13T10:38:22;1.83;;;1.60;;
17763;SDS011;22245;52.832;13.816;2023-07-13T10:41:46;3.95;;;1.80;;
17763;SDS011;22245;52.832;13.816;2023-07-13T10:45:14;4.13;;;1.60;;
17763;SDS011;22245;52.832;13.816;2023-07-13T10:48:37;3.55;;;1.73;;
17763;SDS011;22245;52.832;13.816;2023-07-13T10:52:03;2.35;;;1.50;;
17763;SDS011;22245;52.832;13.816;2023-07-13T10:55:35;3.08;;;2.13;;
17763;SDS011;22245;52.832;13.816;2023-07-13T10:59:02;4.45;;;1.92;;
17763;SDS011;22245;52.832;13.816;2023-07-13T11:02:33;4.65;;;1.77;;
17763;SDS011;22245;52.832;13.816;2023-07-13T11:06:04;2.33;;;1.40;;
17763;SDS011;22245;52.832;13.816;2023-07-13T11:09:34;3.00;;;1.85;;
17763;SDS011;22245;52.832;13.816;2023-07-13T11:12:59;3.35;;;1.67;;
17763;SDS011;22245;52.832;13.816;2023-07-13T11:16:37;4.38;;;1.65;;
17763;SDS011;22245;52.832;13.816;2023-07-13T11:20:30;5.07;;;1.50;;
17763;SDS011;22245;52.832;13.816;2023-07-13T11:24:02;3.65;;;1.52;;
17763;SDS011;22245;52.832;13.816;2023-07-13T11:27:35;5.10;;;1.83;;
17763;SDS011;22245;52.832;13.816;2023-07-13T11:31:03;3.72;;;1.85;;
17763;SDS011;22245;52.832;13.816;2023-07-13T11:34:38;3.25;;;1.88;;
17763;SDS011;22245;52.832;13.816;2023-07-13T11:38:01;2.88;;;1.92;;
17763;SDS011;22245;52.832;13.816;2023-07-13T11:41:25;4.35;;;2.20;;
17763;SDS011;22245;52.832;13.816;2023-07-13T11:44:50;4.30;;;1.85;;
17763;SDS011;22245;52.832;13.816;2023-07-13T11:48:29;2.45;;;2.10;;
17763;SDS011;22245;52.832;13.816;2023-07-13T11:51:52;5.53;;;2.33;;
17763;SDS011;22245;52.832;13.816;2023-07-13T11:55:17;2.72;;;2.40;;
17763;SDS011;22245;52.832;13.816;2023-07-13T11:58:41;3.17;;;2.22;;
17763;SDS011;22245;52.832;13.816;2023-07-13T12:02:08;2.90;;;2.08;;
17763;SDS011;22245;52.832;13.816;2023-07-13T12:05:38;3.03;;;2.20;;
17763;SDS011;22245;52.832;13.816;2023-07-13T12:09:40;5.93;;;2.58;;
17763;SDS011;22245;52.832;13.816;2023-07-13T12:13:16;6.53;;;2.22;;
17763;SDS011;22245;52.832;13.816;2023-07-13T12:16:40;5.38;;;2.40;;
17763;SDS011;22245;52.832;13.816;2023-07-13T12:20:12;2.80;;;2.50;;
17763;SDS011;22245;52.832;13.816;2023-07-13T12:23:43;5.18;;;2.28;;
17763;SDS011;22245;52.832;13.816;2023-07-13T12:27:13;3.63;;;2.05;;
17763;SDS011;22245;52.832;13.816;2023-07-13T12:30:47;5.35;;;2.00;;
17763;SDS011;22245;52.832;13.816;2023-07-13T12:34:11;4.97;;;2.20;;
17763;SDS011;22245;52.832;13.816;2023-07-13T12:37:51;3.80;;;2.00;;
17763;SDS011;22245;52.832;13.816;2023-07-13T12:41:14;4.20;;;2.17;;
17763;SDS011;22245;52.832;13.816;2023-07-13T12:44:39;4.32;;;2.20;;
17763;SDS011;22245;52.832;13.816;2023-07-13T12:48:14;3.47;;;2.20;;
17763;SDS011;22245;52.832;13.816;2023-07-13T12:51:45;3.40;;;2.03;;
17763;SDS011;22245;52.832;13.816;2023-07-13T12:55:26;6.80;;;2.45;;
17763;SDS011;22245;52.832;13.816;2023-07-13T12:58:56;7.72;;;2.42;;
17763;SDS011;22245;52.832;13.816;2023-07-13T13:02:25;4.70;;;2.50;;
17763;SDS011;22245;52.832;13.816;2023-07-13T13:05:59;3.58;;;2.58;;
17763;SDS011;22245;52.832;13.816;2023-07-13T13:09:24;4.20;;;2.58;;
17763;SDS011;22245;52.832;13.816;2023-07-13T13:12:49;3.45;;;2.30;;
17763;SDS011;22245;52.832;13.816;2023-07-13T13:16:14;4.95;;;2.40;;
17763;SDS011;22245;52.832;13.816;2023-07-13T13:19:43;3.72;;;2.25;;
17763;SDS011;22245;52.832;13.816;2023-07-13T13:23:08;3.53;;;2.33;;
17763;SDS011;22245;52.832;13.816;2023-07-13T13:26:35;5.25;;;2.70;;
17763;SDS011;22245;52.832;13.816;2023-07-13T13:29:57;5.50;;;2.85;;
17763;SDS011;22245;52.832;13.816;2023-07-13T13:33:22;3.70;;;2.53;;
17763;SDS011;22245;52.832;13.816;2023-07-13T13:36:44;4.40;;;2.70;;
17763;SDS011;22245;52.832;13.816;2023-07-13T13:40:15;6.38;;;2.90;;
17763;SDS011;22245;52.832;13.816;2023-07-13T13:43:40;6.80;;;2.78;;
17763;SDS011;22245;52.832;13.816;2023-07-13T13:47:04;5.47;;;3.30;;
17763;SDS011;22245;52.832;13.816;2023-07-13T13:50:27;4.13;;;2.65;;
17763;SDS011;22245;52.832;13.816;2023-07-13T13:53:49;7.97;;;2.67;;
17763;SDS011;22245;52.832;13.816;2023-07-13T13:57:12;6.93;;;2.75;;
17763;SDS011;22245;52.832;13.816;2023-07-13T14:00:34;4.68;;;2.88;;
17763;SDS011;22245;52.832;13.816;2023-07-13T14:04:01;5.93;;;2.67;;
17763;SDS011;22245;52.832;13.816;2023-07-13T14:07:25;5.10;;;2.65;;
17763;SDS011;22245;52.832;13.816;2023-07-13T14:10:48;8.13;;;2.63;;
17763;SDS011;22245;52.832;13.816;2023-07-13T14:14:15;4.28;;;2.60;;
17763;SDS011;22245;52.832;13.816;2023-07-13T14:17:39;5.57;;;2.80;;
17763;SDS011;22245;52.832;13.816;2023-07-13T14:21:08;8.98;;;2.70;;
17763;SDS011;22245;52.832;13.816;2023-07-13T14:24:32;7.25;;;2.80;;
17763;SDS011;22245;52.832;13.816;2023-07-13T14:27:56;5.80;;;2.90;;
17763;SDS011;22245;52.832;13.816;2023-07-13T14:31:22;5.28;;;2.75;;
17763;SDS011;22245;52.832;13.816;2023-07-13T14:34:49;3.80;;;2.53;;
17763;SDS011;22245;52.832;13.816;2023-07-13T14:38:13;4.25;;;2.22;;
17763;SDS011;22245;52.832;13.816;2023-07-13T14:41:38;5.75;;;2.28;;
17763;SDS011;22245;52.832;13.816;2023-07-13T14:44:59;5.75;;;2.30;;
17763;SDS011;22245;52.832;13.816;2023-07-13T14:48:23;7.32;;;2.35;;
17763;SDS011;22245;52.832;13.816;2023-07-13T14:51:45;6.40;;;2.30;;
17763;SDS011;22245;52.832;13.816;2023-07-13T14:55:08;4.72;;;2.40;;
17763;SDS011;22245;52.832;13.816;2023-07-13T14:58:32;4.90;;;2.10;;
17763;SDS011;22245;52.832;13.816;2023-07-13T15:01:53;3.65;;;2.40;;
17763;SDS011;22245;52.832;13.816;2023-07-13T15:05:18;2.45;;;2.20;;
17763;SDS011;22245;52.832;13.816;2023-07-13T15:08:43;4.82;;;1.90;;
17763;SDS011;22245;52.832;13.816;2023-07-13T15:12:05;5.53;;;2.25;;
17763;SDS011;22245;52.832;13.816;2023-07-13T15:15:28;4.10;;;2.00;;
17763;SDS011;22245;52.832;13.816;2023-07-13T15:18:51;4.03;;;2.30;;
17763;SDS011;22245;52.832;13.816;2023-07-13T15:22:14;4.95;;;2.05;;
17763;SDS011;22245;52.832;13.816;2023-07-13T15:25:37;4.53;;;2.30;;
17763;SDS011;22245;52.832;13.816;2023-07-13T15:28:58;4.28;;;2.30;;
17763;SDS011;22245;52.832;13.816;2023-07-13T15:32:21;6.57;;;2.15;;
17763;SDS011;22245;52.832;13.816;2023-07-13T15:35:43;7.03;;;2.08;;
17763;SDS011;22245;52.832;13.816;2023-07-13T15:39:09;3.45;;;2.30;;
17763;SDS011;22245;52.832;13.816;2023-07-13T15:42:35;3.85;;;2.03;;
17763;SDS011;22245;52.832;13.816;2023-07-13T15:46:00;5.40;;;1.90;;
17763;SDS011;22245;52.832;13.816;2023-07-13T15:49:21;4.30;;;1.70;;
17763;SDS011;22245;52.832;13.816;2023-07-13T15:52:44;4.47;;;1.80;;
17763;SDS011;22245;52.832;13.816;2023-07-13T15:56:16;6.10;;;1.80;;
17763;SDS011;22245;52.832;13.816;2023-07-13T15:59:40;5.28;;;1.67;;
17763;SDS011;22245;52.832;13.816;2023-07-13T16:03:02;3.08;;;1.85;;
17763;SDS011;22245;52.832;13.816;2023-07-13T16:06:26;4.95;;;1.80;;
17763;SDS011;22245;52.832;13.816;2023-07-13T16:09:50;3.13;;;1.55;;
17763;SDS011;22245;52.832;13.816;2023-07-13T16:13:14;2.60;;;1.50;;
17763;SDS011;22245;52.832;13.816;2023-07-13T16:16:39;6.53;;;1.80;;
17763;SDS011;22245;52.832;13.816;2023-07-13T16:20:01;4.35;;;1.58;;
17763;SDS011;22245;52.832;13.816;2023-07-13T16:23:23;2.80;;;1.13;;
17763;SDS011;22245;52.832;13.816;2023-07-13T16:26:46;3.65;;;1.38;;
17763;SDS011;22245;52.832;13.816;2023-07-13T16:30:14;3.88;;;1.33;;
17763;SDS011;22245;52.832;13.816;2023-07-13T16:33:41;4.00;;;1.20;;
17763;SDS011;22245;52.832;13.816;2023-07-13T16:37:05;3.88;;;1.35;;
17763;SDS011;22245;52.832;13.816;2023-07-13T16:40:34;3.53;;;1.80;;
17763;SDS011;22245;52.832;13.816;2023-07-13T16:43:55;1.88;;;1.38;;
17763;SDS011;22245;52.832;13.816;2023-07-13T16:47:19;3.88;;;1.40;;
17763;SDS011;22245;52.832;13.816;2023-07-13T16:50:43;5.30;;;1.60;;
17763;SDS011;22245;52.832;13.816;2023-07-13T16:54:07;8.70;;;1.90;;
17763;SDS011;22245;52.832;13.816;2023-07-13T16:57:30;2.83;;;1.52;;
17763;SDS011;22245;52.832;13.816;2023-07-13T17:00:54;5.30;;;1.70;;
17763;SDS011;22245;52.832;13.816;2023-07-13T17:04:18;3.40;;;1.90;;
17763;SDS011;22245;52.832;13.816;2023-07-13T17:07:42;2.85;;;1.52;;
17763;SDS011;22245;52.832;13.816;2023-07-13T17:11:06;5.50;;;1.75;;
17763;SDS011;22245;52.832;13.816;2023-07-13T17:14:27;3.38;;;1.77;;
17763;SDS011;22245;52.832;13.816;2023-07-13T17:17:54;15.70;;;2.20;;
17763;SDS011;22245;52.832;13.816;2023-07-13T17:21:28;5.53;;;1.90;;
17763;SDS011;22245;52.832;13.816;2023-07-13T17:24:50;11.27;;;2.03;;
17763;SDS011;22245;52.832;13.816;2023-07-13T17:28:15;10.52;;;1.52;;
17763;SDS011;22245;52.832;13.816;2023-07-13T17:31:40;9.07;;;1.52;;
17763;SDS011;22245;52.832;13.816;2023-07-13T17:35:08;4.03;;;1.40;;
17763;SDS011;22245;52.832;13.816;2023-07-13T17:38:40;5.15;;;1.08;;
17763;SDS011;22245;52.832;13.816;2023-07-13T17:42:04;3.13;;;1.15;;
17763;SDS011;22245;52.832;13.816;2023-07-13T17:45:29;2.72;;;1.50;;
17763;SDS011;22245;52.832;13.816;2023-07-13T17:48:52;1.88;;;1.20;;
17763;SDS011;22245;52.832;13.816;2023-07-13T17:52:14;1.88;;;1.20;;
17763;SDS011;22245;52.832;13.816;2023-07-13T17:55:37;2.45;;;1.30;;
17763;SDS011;22245;52.832;13.816;2023-07-13T17:58:59;2.80;;;1.42;;
17763;SDS011;22245;52.832;13.816;2023-07-13T18:02:21;2.88;;;1.65;;
17763;SDS011;22245;52.832;13.816;2023-07-13T18:05:44;1.92;;;1.42;;
17763;SDS011;22245;52.832;13.816;2023-07-13T18:09:13;2.45;;;1.40;;
17763;SDS011;22245;52.832;13.816;2023-07-13T18:12:37;5.25;;;1.45;;
17763;SDS011;22245;52.832;13.816;2023-07-13T18:15:58;4.28;;;1.70;;
17763;SDS011;22245;52.832;13.816;2023-07-13T18:19:25;3.58;;;1.58;;
17763;SDS011;22245;52.832;13.816;2023-07-13T18:22:51;4.38;;;1.65;;
17763;SDS011;22245;52.832;13.816;2023-07-13T18:26:15;1.83;;;1.45;;
17763;SDS011;22245;52.832;13.816;2023-07-13T18:29:40;2.63;;;1.85;;
17763;SDS011;22245;52.832;13.816;2023-07-13T18:33:03;3.30;;;1.80;;
17763;SDS011;22245;52.832;13.816;2023-07-13T18:36:25;2.35;;;1.73;;
17763;SDS011;22245;52.832;13.816;2023-07-13T18:43:11;4.28;;;1.45;;
17763;SDS011;22245;52.832;13.816;2023-07-13T18:46:35;5.43;;;1.60;;
17763;SDS011;22245;52.832;13.816;2023-07-13T18:49:57;2.45;;;1.60;;
17763;SDS011;22245;52.832;13.816;2023-07-13T18:53:19;3.65;;;1.75;;
17763;SDS011;22245;52.832;13.816;2023-07-13T18:56:41;3.85;;;1.70;;
17763;SDS011;22245;52.832;13.816;2023-07-13T19:00:03;2.40;;;1.50;;
17763;SDS011;22245;52.832;13.816;2023-07-13T19:03:34;3.95;;;1.40;;
17763;SDS011;22245;52.832;13.816;2023-07-13T19:06:56;3.25;;;1.80;;
17763;SDS011;22245;52.832;13.816;2023-07-13T19:10:19;3.50;;;2.03;;
17763;SDS011;22245;52.832;13.816;2023-07-13T19:13:43;2.53;;;1.90;;
17763;SDS011;22245;52.832;13.816;2023-07-13T19:17:07;2.63;;;1.70;;
17763;SDS011;22245;52.832;13.816;2023-07-13T19:20:32;2.45;;;1.80;;
17763;SDS011;22245;52.832;13.816;2023-07-13T19:23:54;3.92;;;1.30;;
17763;SDS011;22245;52.832;13.816;2023-07-13T19:27:16;2.92;;;1.48;;
17763;SDS011;22245;52.832;13.816;2023-07-13T19:30:37;2.00;;;1.60;;
17763;SDS011;22245;52.832;13.816;2023-07-13T19:33:59;5.68;;;1.77;;
17763;SDS011;22245;52.832;13.816;2023-07-13T19:37:28;2.78;;;1.55;;
17763;SDS011;22245;52.832;13.816;2023-07-13T19:40:50;13.30;;;2.03;;
17763;SDS011;22245;52.832;13.816;2023-07-13T19:44:14;3.20;;;1.90;;
17763;SDS011;22245;52.832;13.816;2023-07-13T19:47:37;2.05;;;1.42;;
17763;SDS011;22245;52.832;13.816;2023-07-13T19:50:59;2.70;;;2.05;;
17763;SDS011;22245;52.832;13.816;2023-07-13T19:54:23;2.33;;;1.92;;
17763;SDS011;22245;52.832;13.816;2023-07-13T19:57:47;3.70;;;2.38;;
17763;SDS011;22245;52.832;13.816;2023-07-13T20:01:09;8.55;;;2.20;;
17763;SDS011;22245;52.832;13.816;2023-07-13T20:04:31;2.65;;;1.85;;
17763;SDS011;22245;52.832;13.816;2023-07-13T20:07:54;3.67;;;1.92;;
17763;SDS011;22245;52.832;13.816;2023-07-13T20:11:19;2.20;;;1.92;;
17763;SDS011;22245;52.832;13.816;2023-07-13T20:14:40;4.68;;;1.80;;
17763;SDS011;22245;52.832;13.816;2023-07-13T20:18:03;3.70;;;2.17;;
17763;SDS011;22245;52.832;13.816;2023-07-13T20:21:26;3.15;;;1.90;;